createdAt,value
2023-04-18T00:00:44.848Z,91.74
2023-04-18T00:05:48.240Z,91.71
2023-04-18T00:10:50.039Z,91.73
2023-04-18T00:15:54.210Z,91.59
2023-04-18T00:20:56.826Z,91.72
2023-04-18T00:25:58.850Z,91.60
2023-04-18T00:31:00.765Z,91.67
2023-04-18T00:36:03.358Z,91.61
2023-04-18T00:41:05.099Z,91.59
2023-04-18T00:46:06.937Z,91.65
2023-04-18T00:51:09.857Z,91.79
2023-04-18T00:56:11.825Z,92.03
2023-04-18T01:01:13.694Z,92.09
2023-04-18T01:06:15.536Z,92.12
2023-04-18T01:11:17.607Z,91.95
2023-04-18T01:16:22.309Z,91.87
2023-04-18T01:21:24.767Z,91.94
2023-04-18T01:26:28.015Z,91.92
2023-04-18T01:31:30.802Z,91.96
2023-04-18T01:36:33.155Z,92.03
2023-04-18T01:41:35.210Z,92.08
2023-04-18T01:46:36.974Z,91.92
2023-04-18T01:51:38.973Z,91.94
2023-04-18T01:56:40.720Z,91.84
2023-04-18T02:01:42.841Z,91.82
2023-04-18T02:06:44.547Z,91.82
2023-04-18T02:11:46.506Z,91.71
2023-04-18T02:16:48.297Z,91.77
2023-04-18T02:21:51.294Z,91.79
2023-04-18T02:26:53.034Z,91.63
2023-04-18T02:31:54.721Z,91.66
2023-04-18T02:36:56.417Z,91.67
2023-04-18T02:41:58.816Z,91.73
2023-04-18T02:47:00.513Z,91.58
2023-04-18T02:52:02.266Z,91.50
2023-04-18T02:57:04.039Z,91.47
2023-04-18T03:02:29.069Z,91.47
2023-04-18T03:07:33.992Z,91.32
2023-04-18T03:12:35.800Z,91.44
2023-04-18T03:17:38.000Z,91.54
2023-04-18T03:22:40.321Z,91.63
2023-04-18T03:27:43.270Z,91.64
2023-04-18T03:32:49.023Z,91.56
2023-04-18T03:37:51.152Z,91.53
2023-04-18T03:42:59.939Z,91.58
2023-04-18T03:48:02.059Z,91.53
2023-04-18T03:53:06.758Z,91.52
2023-04-18T03:58:10.263Z,91.28
2023-04-18T04:07:12.079Z,91.53
2023-04-18T04:12:13.886Z,91.55
2023-04-18T04:17:15.997Z,91.32
2023-04-18T04:22:17.784Z,91.30
2023-04-18T04:27:20.623Z,91.14
2023-04-18T04:32:22.714Z,90.90
2023-04-18T04:37:24.780Z,90.67
2023-04-18T04:42:35.926Z,90.46
2023-04-18T04:47:43.335Z,90.46
2023-04-18T04:52:45.430Z,90.29
2023-04-18T04:57:47.838Z,89.96
2023-04-18T05:03:02.360Z,89.82
2023-04-18T05:08:04.672Z,89.58
2023-04-18T05:13:06.662Z,89.39
2023-04-18T05:18:09.098Z,89.08
2023-04-18T05:23:10.934Z,88.90
2023-04-18T05:28:12.606Z,88.75
2023-04-18T05:33:14.345Z,88.50
2023-04-18T05:38:16.084Z,88.06
2023-04-18T05:43:19.421Z,87.37
2023-04-18T05:48:23.001Z,86.80
2023-04-18T05:53:24.749Z,85.90
2023-04-18T05:58:28.718Z,85.42
2023-04-18T06:03:31.165Z,84.88
2023-04-18T06:08:33.374Z,84.90
2023-04-18T06:13:35.474Z,84.55
2023-04-18T06:18:37.619Z,84.19
2023-04-18T06:23:39.299Z,83.70
2023-04-18T06:28:41.108Z,83.04
2023-04-18T06:33:42.850Z,82.19
2023-04-18T06:38:45.150Z,81.40
2023-04-18T06:44:01.613Z,81.36
2023-04-18T06:49:04.254Z,80.47
2023-04-18T06:54:06.197Z,79.71
2023-04-18T06:59:07.931Z,79.04
2023-04-18T07:04:09.838Z,78.49
2023-04-18T07:09:11.829Z,77.38
2023-04-18T07:14:13.747Z,75.38
2023-04-18T07:19:15.651Z,73.67
2023-04-18T07:24:17.403Z,72.30
2023-04-18T07:29:22.031Z,72.49
2023-04-18T07:34:23.724Z,71.14
2023-04-18T07:39:25.578Z,70.64
2023-04-18T07:44:27.582Z,70.53
2023-04-18T07:49:29.313Z,70.14
2023-04-18T07:54:31.078Z,68.52
2023-04-18T07:59:32.982Z,68.27
2023-04-18T08:04:34.799Z,67.87
2023-04-18T08:09:36.660Z,67.21
2023-04-18T08:14:38.485Z,66.87
2023-04-18T08:19:40.166Z,65.87
2023-04-18T08:24:51.078Z,66.34
2023-04-18T08:30:04.747Z,66.78
2023-04-18T08:35:06.707Z,66.43
2023-04-18T08:40:08.977Z,64.89
2023-04-18T08:45:15.185Z,64.99
2023-04-18T08:50:17.323Z,64.38
2023-04-18T08:55:19.435Z,63.95
2023-04-18T09:00:22.731Z,64.42
2023-04-18T09:05:26.895Z,63.21
2023-04-18T09:10:32.928Z,62.00
2023-04-18T09:15:35.252Z,61.44
2023-04-18T09:20:42.194Z,60.44
2023-04-18T09:25:48.985Z,61.08
2023-04-18T09:30:52.694Z,57.62
2023-04-18T09:35:55.734Z,57.53
2023-04-18T09:41:11.140Z,59.44
2023-04-18T09:46:13.425Z,59.68
2023-04-18T09:51:16.632Z,59.22
2023-04-18T09:56:26.066Z,59.81
2023-04-18T10:01:29.733Z,60.71
2023-04-18T10:06:33.958Z,61.37
2023-04-18T10:11:36.577Z,59.82
2023-04-18T10:16:39.323Z,59.48
2023-04-18T10:21:51.799Z,60.02
2023-04-18T10:26:53.552Z,60.02
2023-04-18T10:31:55.777Z,60.15
2023-04-18T10:37:05.532Z,59.83
2023-04-18T10:42:07.240Z,58.50
2023-04-18T10:47:08.965Z,56.90
2023-04-18T10:57:13.944Z,54.40
2023-04-18T11:02:26.272Z,53.43
2023-04-18T11:07:36.460Z,51.97
2023-04-18T11:12:40.822Z,52.96
2023-04-18T11:17:42.930Z,52.65
2023-04-18T11:22:59.064Z,54.08
2023-04-18T11:28:02.743Z,53.96
2023-04-18T11:33:09.059Z,53.47
2023-04-18T11:38:15.602Z,52.31
2023-04-18T11:43:23.261Z,51.38
2023-04-18T11:48:37.736Z,51.92
2023-04-18T11:53:39.937Z,52.37
2023-04-18T11:58:42.930Z,53.27
2023-04-18T12:03:59.422Z,52.32
2023-04-18T12:09:01.547Z,51.87
2023-04-18T12:14:04.195Z,50.56
2023-04-18T12:19:06.316Z,48.64
2023-04-18T12:24:18.396Z,49.03
2023-04-18T12:29:20.124Z,48.86
2023-04-18T12:34:21.960Z,48.04
2023-04-18T12:39:23.734Z,48.19
2023-04-18T12:44:25.371Z,47.20
2023-04-18T12:49:26.993Z,46.93
2023-04-18T12:54:28.680Z,47.08
2023-04-18T12:59:30.842Z,47.29
2023-04-18T13:04:32.919Z,46.51
2023-04-18T13:09:35.557Z,44.97
2023-04-18T13:14:37.268Z,45.33
2023-04-18T13:19:38.943Z,44.83
2023-04-18T13:24:40.876Z,44.15
2023-04-18T13:29:43.807Z,44.42
2023-04-18T13:34:47.332Z,44.34
2023-04-18T13:39:49.177Z,43.77
2023-04-18T13:44:50.840Z,44.93
2023-04-18T13:49:52.686Z,44.70
2023-04-18T13:54:55.524Z,45.30
2023-04-18T13:59:57.449Z,45.83
2023-04-18T14:04:59.314Z,46.09
2023-04-18T14:10:01.147Z,46.14
2023-04-18T14:15:15.788Z,47.52
2023-04-18T14:20:20.789Z,48.40
2023-04-18T14:25:22.528Z,47.29
2023-04-18T14:30:24.678Z,46.63
2023-04-18T14:35:26.417Z,48.22
2023-04-18T14:40:29.145Z,49.08
2023-04-18T14:45:33.457Z,49.59
2023-04-18T14:50:36.325Z,49.96
2023-04-18T14:55:37.982Z,49.01
2023-04-18T15:00:39.647Z,48.27
2023-04-18T15:05:46.362Z,48.80
2023-04-18T15:10:48.155Z,49.55
2023-04-18T15:15:54.212Z,51.35
2023-04-18T15:20:56.990Z,52.11
2023-04-18T15:25:59.653Z,52.81
2023-04-18T15:31:01.457Z,51.38
2023-04-18T15:36:03.298Z,50.90
2023-04-18T15:41:05.254Z,52.55
2023-04-18T15:46:07.491Z,52.80
2023-04-18T15:51:09.261Z,53.06
2023-04-18T15:56:10.972Z,53.32
2023-04-18T16:01:16.113Z,53.40
2023-04-18T16:06:22.322Z,55.08
2023-04-18T16:11:27.569Z,55.23
2023-04-18T16:16:29.516Z,56.59
2023-04-18T16:21:32.562Z,56.00
2023-04-18T16:26:34.259Z,56.49
2023-04-18T16:31:36.172Z,56.91
2023-04-18T16:36:38.173Z,59.08
2023-04-18T16:41:39.868Z,60.41
2023-04-18T16:46:41.752Z,62.37
2023-04-18T16:51:43.611Z,62.38
2023-04-18T16:56:45.673Z,61.71
2023-04-18T17:01:47.435Z,61.67
2023-04-18T17:06:51.853Z,62.01
2023-04-18T17:11:53.971Z,62.93
2023-04-18T17:16:55.874Z,63.86
2023-04-18T17:21:57.591Z,64.00
2023-04-18T17:27:00.320Z,64.23
2023-04-18T17:32:02.070Z,64.28
2023-04-18T17:37:05.407Z,65.34
2023-04-18T17:42:07.127Z,65.95
2023-04-18T17:47:08.851Z,66.32
2023-04-18T17:52:10.767Z,66.64
2023-04-18T17:57:12.967Z,67.11
2023-04-18T18:02:15.219Z,67.13
2023-04-18T18:07:17.148Z,67.60
2023-04-18T18:12:18.854Z,68.00
2023-04-18T18:17:20.584Z,66.98
2023-04-18T18:22:24.852Z,67.19
2023-04-18T18:27:26.512Z,65.86
2023-04-18T18:32:28.609Z,63.63
2023-04-18T18:37:30.327Z,64.05
2023-04-18T18:42:32.084Z,64.38
2023-04-18T18:47:34.407Z,65.17
2023-04-18T18:52:36.964Z,66.08
2023-04-18T18:57:38.849Z,66.97
2023-04-18T19:02:40.840Z,67.98
2023-04-18T19:07:42.875Z,68.99
2023-04-18T19:12:44.859Z,70.33
2023-04-18T19:17:47.089Z,71.50
2023-04-18T19:22:49.257Z,71.74
2023-04-18T19:27:51.315Z,73.47
2023-04-18T19:32:53.603Z,75.01
2023-04-18T19:38:01.560Z,76.79
2023-04-18T19:43:03.322Z,78.97
2023-04-18T19:48:05.720Z,78.66
2023-04-18T19:53:08.336Z,78.14
2023-04-18T19:58:10.043Z,78.58
2023-04-18T20:03:15.196Z,76.01
2023-04-18T20:08:17.430Z,76.31
2023-04-18T20:13:19.099Z,76.42
2023-04-18T20:18:21.374Z,76.09
2023-04-18T20:23:23.091Z,76.16
2023-04-18T20:28:24.910Z,75.79
2023-04-18T20:33:26.704Z,76.84
2023-04-18T20:38:29.837Z,76.14
2023-04-18T20:43:36.635Z,76.53
2023-04-18T20:48:39.906Z,76.48
2023-04-18T20:53:41.856Z,76.26
2023-04-18T20:58:43.665Z,76.76
2023-04-18T21:03:45.732Z,76.59
2023-04-18T21:08:48.785Z,76.88
2023-04-18T21:13:55.472Z,76.37
2023-04-18T21:18:57.367Z,76.31
2023-04-18T21:23:59.039Z,76.21
2023-04-18T21:29:04.667Z,75.71
2023-04-18T21:34:06.540Z,76.26
2023-04-18T21:39:08.430Z,75.83
2023-04-18T21:44:11.265Z,76.08
2023-04-18T21:49:16.622Z,76.06
2023-04-18T21:54:19.923Z,76.27
2023-04-18T21:59:21.787Z,76.27
2023-04-18T22:04:26.199Z,75.72
2023-04-18T22:09:29.541Z,75.89
2023-04-18T22:14:34.106Z,75.86
2023-04-18T22:19:36.226Z,75.98
2023-04-18T22:24:37.953Z,76.25
2023-04-18T22:29:39.657Z,76.58
2023-04-18T22:34:41.553Z,77.09
2023-04-18T22:39:43.250Z,77.75
2023-04-18T22:44:46.168Z,77.95
2023-04-18T22:49:47.891Z,78.63
2023-04-18T22:54:49.616Z,78.12
2023-04-18T22:59:51.450Z,78.59
2023-04-18T23:04:53.504Z,78.79
2023-04-18T23:09:56.085Z,78.88
2023-04-18T23:14:58.655Z,79.19
2023-04-18T23:20:01.299Z,79.52
2023-04-18T23:25:03.275Z,80.08
2023-04-18T23:30:07.900Z,80.67
2023-04-18T23:35:15.692Z,80.67
2023-04-18T23:40:18.347Z,81.74
2023-04-18T23:45:20.233Z,82.05
2023-04-18T23:50:23.610Z,82.16
2023-04-18T23:55:25.374Z,82.42
